Time;durP1;ratioP1;P1;durP2;ratioP2;P2;SDS_P1;SDS_P2;PMS_P1;PMS_P2;Temp;Humidity;BMP_temperature;BMP_pressure;BME280_temperature;BME280_humidity;BME280_pressure;Samples;Min_cycle;Max_cycle;Signal;HPM_P1;HPM_P2
2021/01/30 00:00:42;;;;;;;3.00;0.80;;;12.10;64.80;;;;;;5010040;28;20186;-43
2021/01/30 00:03:09;;;;;;;1.30;0.93;;;12.40;64.40;;;;;;5009948;28;21059;-43
2021/01/30 00:05:35;;;;;;;1.20;1.07;;;12.60;63.30;;;;;;5011960;28;20531;-43
2021/01/30 00:08:01;;;;;;;3.63;1.23;;;12.80;61.70;;;;;;5012176;28;20429;-43
2021/01/30 00:10:28;;;;;;;1.47;1.30;;;12.90;60.50;;;;;;5008085;28;20475;-43
2021/01/30 00:12:53;;;;;;;5.60;0.90;;;12.80;60.90;;;;;;5011307;28;20499;-43
2021/01/30 00:15:25;;;;;;;1.50;1.00;;;12.70;60.60;;;;;;5009595;28;20429;-43
2021/01/30 00:17:52;;;;;;;1.57;1.10;;;12.80;60.40;;;;;;5010819;28;20197;-44
2021/01/30 00:20:24;;;;;;;1.20;0.83;;;12.70;60.50;;;;;;5010380;28;20429;-43
2021/01/30 00:22:51;;;;;;;1.70;0.97;;;12.90;61.40;;;;;;5010999;28;20506;-44
2021/01/30 00:25:23;;;;;;;1.10;0.93;;;13.00;59.60;;;;;;5010977;28;20445;-43
2021/01/30 00:27:48;;;;;;;3.33;0.90;;;13.00;59.30;;;;;;5010480;28;20433;-43
2021/01/30 00:30:17;;;;;;;2.40;0.90;;;13.20;59.40;;;;;;5011796;28;20789;-44
2021/01/30 00:32:43;;;;;;;1.63;0.80;;;13.30;58.30;;;;;;5009765;28;20225;-43
2021/01/30 00:35:10;;;;;;;1.47;0.90;;;13.20;57.60;;;;;;5010811;28;20437;-44
2021/01/30 00:37:35;;;;;;;1.10;0.90;;;13.10;58.40;;;;;;5011467;28;20212;-43
2021/01/30 00:40:01;;;;;;;1.70;0.90;;;13.10;58.40;;;;;;5011168;28;20450;-43
2021/01/30 00:42:27;;;;;;;3.30;1.00;;;13.00;58.20;;;;;;5011270;28;20194;-43
2021/01/30 00:44:53;;;;;;;1.73;0.80;;;12.80;58.20;;;;;;5010782;28;20190;-43
2021/01/30 00:47:20;;;;;;;2.00;1.10;;;12.80;58.50;;;;;;5011147;28;20234;-43
2021/01/30 00:49:47;;;;;;;1.27;1.00;;;12.70;58.30;;;;;;5010936;28;20445;-45
2021/01/30 00:52:14;;;;;;;0.93;0.87;;;12.70;58.60;;;;;;5010158;28;20531;-43
2021/01/30 00:54:40;;;;;;;2.53;1.20;;;13.10;58.90;;;;;;5010103;28;20429;-43
2021/01/30 00:57:07;;;;;;;1.07;0.97;;;13.40;57.40;;;;;;5009633;28;20576;-44
2021/01/30 00:59:32;;;;;;;1.37;1.07;;;13.50;56.60;;;;;;5009268;28;20197;-43
2021/01/30 01:01:58;;;;;;;0.97;0.80;;;13.70;56.20;;;;;;5011170;28;20441;-44
2021/01/30 01:04:24;;;;;;;1.73;0.83;;;13.70;55.60;;;;;;5010520;28;20189;-44
2021/01/30 01:06:50;;;;;;;1.03;0.80;;;13.50;56.00;;;;;;5010671;28;20198;-43
2021/01/30 01:09:17;;;;;;;3.53;1.13;;;13.50;55.70;;;;;;5009620;28;20191;-44
2021/01/30 01:11:45;;;;;;;1.30;0.80;;;13.40;55.40;;;;;;4999811;28;20240;-43
2021/01/30 01:14:11;;;;;;;1.70;0.77;;;13.40;56.70;;;;;;5009912;28;20456;-43
2021/01/30 01:16:37;;;;;;;0.90;0.60;;;13.60;55.40;;;;;;5010805;28;20548;-43
2021/01/30 01:19:04;;;;;;;2.40;0.80;;;13.60;55.90;;;;;;5009910;28;21004;-43
2021/01/30 01:21:30;;;;;;;6.03;1.43;;;13.90;55.00;;;;;;5010491;28;20203;-43
2021/01/30 01:23:55;;;;;;;2.87;0.87;;;14.00;55.40;;;;;;5010319;28;20452;-43
2021/01/30 01:26:21;;;;;;;1.17;1.00;;;14.10;54.40;;;;;;5010134;28;20627;-44
2021/01/30 01:28:49;;;;;;;2.10;0.80;;;13.80;53.40;;;;;;5008377;28;20239;-43
2021/01/30 01:31:15;;;;;;;1.40;1.27;;;14.00;54.90;;;;;;5010303;28;20241;-43
2021/01/30 01:33:41;;;;;;;1.30;1.00;;;14.10;53.80;;;;;;5010157;28;20446;-43
2021/01/30 01:36:08;;;;;;;1.00;1.00;;;14.10;55.10;;;;;;5009762;28;20822;-43
2021/01/30 01:38:34;;;;;;;1.43;0.83;;;14.30;54.20;;;;;;5010571;28;20201;-43
2021/01/30 01:41:01;;;;;;;2.03;0.93;;;14.30;52.90;;;;;;5009636;28;21375;-43
2021/01/30 01:43:28;;;;;;;1.00;0.90;;;14.40;54.10;;;;;;5010017;28;20212;-43
2021/01/30 01:46:06;;;;;;;1.50;0.77;;;14.60;54.00;;;;;;5009543;28;20474;-44
2021/01/30 01:48:35;;;;;;;0.70;0.70;;;14.60;53.00;;;;;;5009706;28;20436;-44
2021/01/30 01:51:04;;;;;;;0.90;0.70;;;14.70;54.10;;;;;;5009535;28;20437;-43
2021/01/30 01:53:38;;;;;;;1.97;0.90;;;14.90;52.60;;;;;;5009762;28;20441;-44
2021/01/30 01:56:13;;;;;;;2.30;1.00;;;14.50;52.30;;;;;;5007323;28;20432;-43
2021/01/30 01:58:43;;;;;;;2.03;0.80;;;14.50;53.30;;;;;;5009459;28;21019;-44
2021/01/30 02:01:09;;;;;;;2.93;0.90;;;14.50;52.60;;;;;;5010280;28;20429;-43
2021/01/30 02:03:36;;;;;;;3.00;0.70;;;14.40;52.40;;;;;;5009776;28;20433;-43
2021/01/30 02:06:03;;;;;;;1.93;0.67;;;14.50;53.30;;;;;;5009727;28;20451;-43
2021/01/30 02:08:30;;;;;;;2.03;0.70;;;14.40;53.00;;;;;;5009352;28;20436;-44
2021/01/30 02:10:57;;;;;;;0.70;0.70;;;14.30;53.40;;;;;;5009565;28;20494;-43
2021/01/30 02:13:28;;;;;;;1.67;0.70;;;14.30;54.20;;;;;;5008586;28;20441;-43
2021/01/30 02:16:02;;;;;;;2.30;1.13;;;14.60;53.80;;;;;;5010144;28;20826;-43
2021/01/30 02:18:53;;;;;;;1.70;0.87;;;14.80;53.40;;;;;;5009731;28;20424;-43
2021/01/30 02:21:56;;;;;;;2.00;1.00;;;14.90;52.40;;;;;;5009775;28;20487;-43
2021/01/30 02:24:30;;;;;;;3.80;0.93;;;14.60;52.90;;;;;;5005818;28;20948;-43
2021/01/30 02:27:21;;;;;;;0.80;0.60;;;14.40;52.60;;;;;;5009729;28;20436;-43
2021/01/30 02:30:23;;;;;;;1.93;1.23;;;14.30;53.50;;;;;;5009201;28;20587;-44
2021/01/30 02:32:51;;;;;;;2.93;0.90;;;13.90;53.60;;;;;;5009214;28;20491;-44
2021/01/30 02:35:37;;;;;;;1.00;0.90;;;13.50;54.40;;;;;;5009251;28;20445;-43
2021/01/30 02:38:24;;;;;;;0.80;0.60;;;13.30;55.40;;;;;;5009205;28;20436;-43
2021/01/30 02:40:55;;;;;;;2.10;0.77;;;13.60;55.50;;;;;;5009591;28;20915;-43
2021/01/30 02:43:28;;;;;;;1.10;0.80;;;13.60;54.80;;;;;;5010064;28;20425;-43
2021/01/30 02:45:57;;;;;;;0.93;0.70;;;13.60;54.20;;;;;;5008656;28;20503;-44
2021/01/30 02:48:30;;;;;;;1.07;0.70;;;13.60;55.20;;;;;;5009910;28;20531;-43
2021/01/30 02:51:01;;;;;;;1.00;0.80;;;13.50;55.00;;;;;;5009972;28;20931;-43
2021/01/30 02:53:30;;;;;;;2.03;0.83;;;13.50;55.10;;;;;;5012803;28;20930;-44
2021/01/30 02:56:00;;;;;;;1.17;1.03;;;13.30;55.00;;;;;;5008728;28;20436;-43
2021/01/30 02:58:36;;;;;;;0.70;0.67;;;12.90;55.60;;;;;;5012557;28;20444;-43
2021/01/30 03:01:02;;;;;;;2.03;0.80;;;12.90;56.40;;;;;;5002260;28;20797;-43
2021/01/30 03:03:28;;;;;;;1.30;0.60;;;12.90;56.40;;;;;;5012609;28;20442;-43
2021/01/30 03:06:09;;;;;;;1.10;0.80;;;13.00;56.20;;;;;;5013033;28;20511;-43
2021/01/30 03:09:07;;;;;;;1.80;0.60;;;12.90;56.30;;;;;;5012949;28;20555;-43
2021/01/30 03:11:43;;;;;;;0.70;0.63;;;12.90;57.30;;;;;;5012393;28;20480;-43
2021/01/30 03:14:22;;;;;;;0.50;0.50;;;13.00;56.70;;;;;;5013382;28;20510;-43
2021/01/30 03:16:49;;;;;;;0.50;0.50;;;12.90;56.60;;;;;;5012111;28;20436;-44
2021/01/30 03:19:22;;;;;;;0.80;0.60;;;13.00;56.70;;;;;;5010641;28;20433;-43
2021/01/30 03:21:53;;;;;;;0.60;0.60;;;12.90;56.80;;;;;;5012460;28;20828;-43
2021/01/30 03:24:19;;;;;;;0.80;0.77;;;13.10;57.20;;;;;;5012591;28;20433;-43
2021/01/30 03:26:45;;;;;;;0.60;0.50;;;13.30;56.70;;;;;;5012504;28;20432;-44
2021/01/30 03:29:13;;;;;;;1.33;0.63;;;13.60;56.40;;;;;;5012120;28;20198;-43
2021/01/30 03:31:39;;;;;;;0.80;0.60;;;13.60;56.20;;;;;;5012622;28;20488;-43
2021/01/30 03:34:09;;;;;;;1.47;0.60;;;13.70;56.00;;;;;;5010159;28;20445;-43
2021/01/30 03:36:36;;;;;;;1.10;1.00;;;13.60;55.80;;;;;;5012764;28;20425;-43
2021/01/30 03:39:05;;;;;;;1.67;0.70;;;13.80;56.30;;;;;;5011981;28;20850;-43
2021/01/30 03:41:31;;;;;;;1.83;1.00;;;13.90;55.00;;;;;;5012886;28;20487;-43
2021/01/30 03:43:56;;;;;;;7.10;0.90;;;13.70;54.70;;;;;;5011396;28;20480;-43
2021/01/30 03:46:22;;;;;;;1.53;0.70;;;13.60;54.80;;;;;;5011621;28;20296;-43
2021/01/30 03:48:47;;;;;;;1.63;0.67;;;13.30;55.50;;;;;;5009385;28;20206;-44
2021/01/30 03:51:13;;;;;;;0.63;0.63;;;13.20;55.70;;;;;;5012448;28;20235;-43
2021/01/30 03:53:38;;;;;;;0.90;0.77;;;13.10;55.60;;;;;;5010900;28;20280;-43
2021/01/30 03:56:04;;;;;;;0.70;0.70;;;13.10;56.20;;;;;;5006303;28;20560;-43
2021/01/30 03:58:30;;;;;;;0.90;0.70;;;13.10;55.50;;;;;;5011415;28;20194;-43
2021/01/30 04:00:55;;;;;;;0.80;0.80;;;13.00;55.50;;;;;;5010923;28;20223;-44
2021/01/30 04:03:21;;;;;;;0.50;0.40;;;12.90;56.10;;;;;;5010459;28;20197;-43
2021/01/30 04:05:46;;;;;;;1.17;0.70;;;12.50;56.60;;;;;;5011398;28;20204;-43
2021/01/30 04:08:12;;;;;;;0.70;0.60;;;12.20;57.50;;;;;;5011202;28;20198;-43
2021/01/30 04:10:37;;;;;;;0.50;0.50;;;12.10;58.30;;;;;;5011896;28;20234;-43
2021/01/30 04:13:09;;;;;;;1.30;0.80;;;12.00;58.40;;;;;;5011614;28;20284;-43
2021/01/30 04:15:39;;;;;;;0.70;0.70;;;11.90;58.60;;;;;;5009484;28;20540;-43
2021/01/30 04:18:06;;;;;;;1.00;0.83;;;12.00;58.50;;;;;;5011731;28;20447;-43
2021/01/30 04:20:32;;;;;;;0.50;0.50;;;12.00;58.40;;;;;;5011421;28;20924;-43
2021/01/30 04:22:58;;;;;;;2.37;0.77;;;12.10;58.40;;;;;;5011193;28;20902;-43
2021/01/30 04:25:25;;;;;;;0.80;0.80;;;12.30;58.20;;;;;;5011968;28;20429;-43
2021/01/30 04:27:51;;;;;;;4.13;0.70;;;12.20;58.10;;;;;;5009919;28;20461;-43
2021/01/30 04:30:20;;;;;;;3.80;0.80;;;12.20;58.40;;;;;;5011916;28;20863;-43
2021/01/30 04:32:46;;;;;;;0.50;0.50;;;12.20;58.30;;;;;;5007403;28;20987;-43
2021/01/30 04:35:13;;;;;;;1.03;0.67;;;12.00;58.30;;;;;;5011448;28;20443;-43
2021/01/30 04:37:39;;;;;;;1.90;0.83;;;12.00;58.80;;;;;;5010894;28;20232;-43
2021/01/30 04:40:08;;;;;;;1.57;1.00;;;12.10;58.50;;;;;;5011230;28;20436;-43
2021/01/30 04:42:49;;;;;;;1.47;0.70;;;12.10;58.50;;;;;;5011702;28;20850;-43
2021/01/30 04:45:31;;;;;;;0.57;0.50;;;12.00;58.60;;;;;;5009100;28;20507;-44
2021/01/30 04:48:06;;;;;;;1.37;0.60;;;11.90;58.70;;;;;;5010302;28;20476;-43
2021/01/30 04:50:51;;;;;;;1.90;0.80;;;11.80;59.20;;;;;;5011809;28;20491;-43
2021/01/30 04:53:45;;;;;;;0.73;0.70;;;11.70;59.10;;;;;;5006893;28;20990;-43
2021/01/30 04:56:33;;;;;;;0.77;0.63;;;11.70;59.30;;;;;;4994124;28;20437;-43
2021/01/30 04:59:09;;;;;;;0.60;0.60;;;11.70;59.50;;;;;;5009474;28;20440;-44
2021/01/30 05:02:02;;;;;;;4.90;0.90;;;11.90;59.20;;;;;;5010918;28;20538;-43
2021/01/30 05:04:37;;;;;;;0.90;0.90;;;11.50;59.10;;;;;;5002278;28;20441;-43
2021/01/30 05:07:25;;;;;;;1.10;1.00;;;11.50;60.20;;;;;;5011219;28;20448;-43
2021/01/30 05:09:53;;;;;;;5.03;1.03;;;11.40;60.40;;;;;;5010406;28;20575;-43
2021/01/30 05:12:44;;;;;;;3.03;0.80;;;11.50;60.80;;;;;;5008713;28;20538;-43
2021/01/30 05:15:17;;;;;;;2.40;0.93;;;11.60;61.00;;;;;;5006832;28;20524;-43
2021/01/30 05:18:00;;;;;;;2.40;1.10;;;11.50;60.90;;;;;;5010898;28;20932;-43
2021/01/30 05:20:30;;;;;;;4.53;1.00;;;11.70;60.50;;;;;;5010944;28;21144;-43
2021/01/30 05:22:56;;;;;;;3.00;0.67;;;11.70;59.70;;;;;;5006916;28;20556;-43
2021/01/30 05:25:24;;;;;;;3.50;1.13;;;12.00;59.50;;;;;;5009953;28;20429;-43
2021/01/30 05:28:17;;;;;;;2.93;1.00;;;12.00;58.70;;;;;;5010208;28;21059;-43
2021/01/30 05:30:58;;;;;;;6.63;1.17;;;11.90;58.30;;;;;;5023118;28;20456;-43
2021/01/30 05:33:50;;;;;;;2.60;1.00;;;11.70;58.80;;;;;;5010327;28;20445;-43
2021/01/30 05:36:22;;;;;;;2.20;1.10;;;11.60;58.40;;;;;;5009392;28;20447;-43
2021/01/30 05:39:09;;;;;;;3.23;1.00;;;11.40;58.70;;;;;;5010469;28;20444;-43
2021/01/30 05:42:11;;;;;;;2.63;1.03;;;11.40;59.20;;;;;;4998679;28;20612;-43
2021/01/30 05:44:56;;;;;;;4.10;1.20;;;11.60;58.70;;;;;;4965231;28;20955;-43
2021/01/30 05:47:28;;;;;;;3.07;1.20;;;11.60;58.60;;;;;;5010236;28;20492;-43
2021/01/30 05:50:08;;;;;;;3.03;1.17;;;11.90;58.20;;;;;;5008801;28;20436;-43
2021/01/30 05:52:36;;;;;;;2.50;1.10;;;11.80;58.10;;;;;;5010090;28;20917;-43
2021/01/30 05:55:04;;;;;;;5.87;1.37;;;12.00;58.00;;;;;;5007208;28;20495;-44
2021/01/30 05:57:30;;;;;;;2.97;1.10;;;12.00;57.60;;;;;;5010409;28;20431;-43
2021/01/30 05:59:58;;;;;;;1.20;0.83;;;11.90;57.80;;;;;;5009668;28;21342;-44
2021/01/30 06:02:28;;;;;;;1.93;1.10;;;11.90;57.80;;;;;;5010377;28;20190;-43
2021/01/30 06:04:54;;;;;;;3.10;1.30;;;11.50;58.00;;;;;;5009623;28;20433;-43
2021/01/30 06:07:22;;;;;;;2.67;1.30;;;11.40;58.10;;;;;;5008785;28;20475;-43
2021/01/30 06:09:49;;;;;;;3.83;1.70;;;11.50;58.30;;;;;;5008942;28;20675;-43
2021/01/30 06:12:24;;;;;;;5.03;1.20;;;11.40;58.40;;;;;;5010315;28;20488;-43
2021/01/30 06:14:50;;;;;;;6.17;1.20;;;11.60;58.40;;;;;;5009373;28;20555;-43
2021/01/30 06:17:25;;;;;;;4.43;1.17;;;11.80;58.10;;;;;;5010494;28;20528;-43
2021/01/30 06:20:21;;;;;;;2.40;1.40;;;11.80;57.80;;;;;;5009485;28;20827;-43
2021/01/30 06:23:11;;;;;;;5.10;2.10;;;11.70;57.90;;;;;;5009270;28;20445;-43
2021/01/30 06:25:40;;;;;;;2.63;1.63;;;11.80;57.60;;;;;;5011091;28;20798;-43
2021/01/30 06:28:14;;;;;;;3.07;0.97;;;11.80;57.60;;;;;;5012962;28;20595;-43
2021/01/30 06:30:43;;;;;;;2.80;1.37;;;12.00;57.50;;;;;;5014123;28;20437;-43
2021/01/30 06:33:33;;;;;;;4.80;1.73;;;12.00;57.30;;;;;;5012565;28;20527;-43
2021/01/30 06:36:15;;;;;;;7.23;1.50;;;11.70;57.10;;;;;;5006914;28;20432;-43
2021/01/30 06:38:48;;;;;;;6.70;2.70;;;11.50;57.40;;;;;;5011094;28;20453;-43
2021/01/30 06:41:20;;;;;;;9.27;1.80;;;11.50;58.00;;;;;;5014731;28;20868;-43
2021/01/30 06:43:51;;;;;;;6.77;1.47;;;11.60;57.50;;;;;;5017851;28;20464;-43
2021/01/30 06:46:20;;;;;;;5.27;1.90;;;11.70;57.00;;;;;;5013365;28;20468;-43
2021/01/30 06:48:51;;;;;;;5.57;1.83;;;11.60;57.00;;;;;;5016070;28;20495;-43
2021/01/30 06:51:26;;;;;;;5.30;1.67;;;11.70;56.70;;;;;;5009644;28;20492;-43
2021/01/30 06:53:52;;;;;;;4.30;1.33;;;11.90;56.80;;;;;;5004417;28;20499;-43
2021/01/30 06:56:23;;;;;;;6.10;1.70;;;12.00;56.50;;;;;;5010386;28;20503;-43
2021/01/30 06:58:50;;;;;;;6.47;1.67;;;12.10;56.40;;;;;;5009951;28;20432;-43
2021/01/30 07:01:21;;;;;;;6.33;1.50;;;12.30;56.20;;;;;;5017883;28;20502;-43
2021/01/30 07:03:59;;;;;;;4.80;1.43;;;12.50;55.90;;;;;;5016814;28;20456;-43
2021/01/30 07:06:53;;;;;;;4.67;2.00;;;12.50;55.70;;;;;;5012168;28;20952;-43
2021/01/30 07:09:48;;;;;;;2.97;1.83;;;12.70;55.30;;;;;;5027223;28;20446;-42
2021/01/30 07:12:43;;;;;;;6.33;1.63;;;12.90;55.00;;;;;;5011948;28;20488;-43
2021/01/30 07:15:21;;;;;;;7.20;1.87;;;13.00;54.70;;;;;;5012253;28;21023;-43
2021/01/30 07:17:56;;;;;;;9.37;1.80;;;13.00;54.40;;;;;;5016639;28;20448;-42
2021/01/30 07:20:30;;;;;;;5.07;1.90;;;13.00;54.30;;;;;;5014623;28;20437;-42
2021/01/30 07:23:11;;;;;;;4.97;1.60;;;12.90;54.40;;;;;;5010364;28;20442;-43
2021/01/30 07:25:44;;;;;;;8.03;1.50;;;12.90;54.40;;;;;;5015240;28;20797;-43
2021/01/30 07:28:32;;;;;;;5.87;1.83;;;13.00;54.40;;;;;;5012529;28;20799;-43
2021/01/30 07:31:09;;;;;;;5.97;1.77;;;13.00;54.30;;;;;;5005364;28;20483;-43
2021/01/30 07:33:54;;;;;;;7.33;1.80;;;13.00;53.90;;;;;;5012717;28;20440;-42
2021/01/30 07:36:30;;;;;;;5.10;1.97;;;12.70;54.50;;;;;;5012694;28;20444;-43
2021/01/30 07:39:02;;;;;;;6.67;2.73;;;12.70;54.50;;;;;;5011918;28;20448;-43
2021/01/30 07:41:41;;;;;;;6.60;1.70;;;12.60;54.40;;;;;;5013419;28;20451;-43
2021/01/30 07:44:40;;;;;;;3.77;1.60;;;12.60;54.60;;;;;;5016379;28;20444;-43
2021/01/30 07:47:18;;;;;;;4.57;1.83;;;12.70;54.30;;;;;;4959739;28;20482;-43
2021/01/30 07:49:52;;;;;;;4.37;2.07;;;12.80;54.40;;;;;;5011505;28;20437;-43
2021/01/30 07:52:23;;;;;;;3.33;1.90;;;12.80;54.60;;;;;;5009686;28;20816;-43
2021/01/30 07:54:55;;;;;;;6.07;2.20;;;12.80;54.50;;;;;;5014677;28;20567;-43
2021/01/30 07:57:56;;;;;;;7.30;2.13;;;12.80;54.50;;;;;;5013168;28;20528;-43
2021/01/30 08:00:27;;;;;;;4.47;1.80;;;12.80;54.60;;;;;;5007950;28;20444;-43
2021/01/30 08:03:13;;;;;;;5.20;1.93;;;12.80;54.30;;;;;;5011732;28;20447;-43
2021/01/30 08:06:00;;;;;;;13.13;3.53;;;12.80;54.70;;;;;;5012412;28;20441;-43
2021/01/30 08:08:40;;;;;;;4.80;2.40;;;12.70;54.70;;;;;;5011917;28;20452;-43
2021/01/30 08:11:31;;;;;;;4.50;2.00;;;12.90;54.80;;;;;;5012837;28;20444;-43
2021/01/30 08:14:22;;;;;;;7.43;2.43;;;13.00;54.40;;;;;;5012209;28;20806;-43
2021/01/30 08:17:02;;;;;;;6.80;2.17;;;13.00;54.20;;;;;;5012466;28;20438;-43
2021/01/30 08:19:46;;;;;;;8.83;1.80;;;13.00;54.30;;;;;;5011730;28;20487;-44
2021/01/30 08:22:25;;;;;;;5.30;2.20;;;13.00;54.40;;;;;;5012375;28;20819;-43
2021/01/30 08:25:03;;;;;;;4.53;2.30;;;12.90;54.00;;;;;;5011512;28;20829;-43
2021/01/30 08:27:37;;;;;;;8.77;2.20;;;12.50;54.30;;;;;;5010770;28;20487;-43
2021/01/30 08:30:10;;;;;;;10.37;2.07;;;12.30;54.90;;;;;;5011601;28;20440;-43
2021/01/30 08:32:39;;;;;;;9.23;2.10;;;12.50;55.10;;;;;;5012190;28;20492;-43
2021/01/30 08:35:35;;;;;;;5.70;2.00;;;12.20;55.40;;;;;;5011697;28;20458;-43
2021/01/30 08:38:03;;;;;;;5.97;1.63;;;12.30;55.70;;;;;;5001851;28;20452;-43
2021/01/30 08:40:55;;;;;;;8.43;3.03;;;12.20;55.50;;;;;;4999570;28;20796;-43
2021/01/30 08:43:36;;;;;;;7.37;1.60;;;12.20;55.70;;;;;;5011990;28;20920;-44
2021/01/30 08:46:29;;;;;;;4.87;1.67;;;12.40;55.50;;;;;;5010970;28;20433;-43
2021/01/30 08:49:13;;;;;;;8.73;2.23;;;12.50;55.20;;;;;;5011270;28;20429;-43
2021/01/30 08:51:43;;;;;;;4.67;1.83;;;12.30;55.30;;;;;;5011890;28;20489;-43
2021/01/30 08:54:30;;;;;;;4.63;1.50;;;12.50;55.30;;;;;;5004359;28;20434;-43
2021/01/30 08:56:57;;;;;;;3.40;1.77;;;12.80;54.90;;;;;;4992164;28;20438;-43
2021/01/30 08:59:49;;;;;;;9.97;2.40;;;12.70;55.20;;;;;;4991472;28;20438;-43
2021/01/30 09:02:27;;;;;;;5.27;2.23;;;12.80;55.20;;;;;;4992001;28;20917;-43
2021/01/30 09:05:06;;;;;;;4.63;1.97;;;13.00;55.10;;;;;;4991027;28;20512;-43
2021/01/30 09:07:46;;;;;;;6.73;1.87;;;13.20;55.00;;;;;;5000109;28;20517;-43
2021/01/30 09:10:33;;;;;;;6.70;2.50;;;13.30;54.90;;;;;;5011168;28;20436;-43
2021/01/30 09:12:58;;;;;;;6.30;3.23;;;13.20;54.80;;;;;;5011387;28;20552;-44
2021/01/30 09:15:42;;;;;;;8.60;3.60;;;13.40;55.60;;;;;;5011043;28;20433;-43
2021/01/30 09:18:24;;;;;;;6.63;2.10;;;13.50;54.90;;;;;;5010596;28;20965;-43
2021/01/30 09:21:17;;;;;;;6.57;1.93;;;13.60;55.00;;;;;;5008710;28;20433;-43
2021/01/30 09:24:01;;;;;;;6.40;2.13;;;13.70;54.90;;;;;;5010912;28;20440;-43
2021/01/30 09:26:51;;;;;;;9.50;1.70;;;13.80;54.60;;;;;;5010766;28;20471;-43
2021/01/30 09:29:26;;;;;;;10.50;2.27;;;13.90;54.40;;;;;;5010222;28;20429;-43
2021/01/30 09:31:58;;;;;;;10.10;3.40;;;13.90;54.20;;;;;;5001820;28;20486;-43
2021/01/30 09:34:29;;;;;;;9.23;2.77;;;13.90;54.10;;;;;;5010215;28;20468;-43
2021/01/30 09:36:55;;;;;;;8.30;2.80;;;14.00;53.90;;;;;;5011255;28;20436;-44
2021/01/30 09:39:32;;;;;;;5.50;1.90;;;13.80;53.80;;;;;;4994357;28;20980;-43
2021/01/30 09:42:19;;;;;;;7.10;3.30;;;13.80;53.60;;;;;;5011136;28;20196;-43
2021/01/30 09:44:47;;;;;;;7.00;2.13;;;13.70;53.70;;;;;;5010016;28;20436;-43
2021/01/30 09:47:18;;;;;;;4.27;1.70;;;13.70;54.00;;;;;;5010314;28;20940;-43
2021/01/30 09:49:46;;;;;;;7.77;1.93;;;13.70;53.90;;;;;;5009968;28;20456;-43
2021/01/30 09:52:18;;;;;;;4.10;2.50;;;13.60;53.60;;;;;;5010866;28;20851;-43
2021/01/30 09:54:44;;;;;;;10.80;2.80;;;13.70;53.90;;;;;;5000423;28;20429;-43
2021/01/30 09:57:23;;;;;;;9.43;2.47;;;13.70;53.80;;;;;;4991010;28;20417;-43
2021/01/30 10:00:08;;;;;;;8.43;2.70;;;13.90;53.70;;;;;;4991042;28;20488;-43
2021/01/30 10:02:34;;;;;;;14.70;2.40;;;13.90;53.60;;;;;;4998746;28;20436;-43
2021/01/30 10:05:14;;;;;;;4.97;2.23;;;14.10;53.50;;;;;;5009383;28;20440;-43
2021/01/30 10:07:40;;;;;;;13.07;3.60;;;14.10;53.60;;;;;;5026534;28;20808;-44
2021/01/30 10:10:29;;;;;;;5.80;1.70;;;14.00;53.30;;;;;;5008678;28;20494;-43
2021/01/30 10:12:58;;;;;;;6.63;2.60;;;14.00;53.20;;;;;;5009334;28;20481;-43
2021/01/30 10:15:34;;;;;;;4.23;2.13;;;14.00;53.30;;;;;;5008981;28;20897;-43
2021/01/30 10:18:03;;;;;;;7.47;2.40;;;14.10;53.40;;;;;;5014418;28;20778;-42
2021/01/30 10:20:56;;;;;;;5.43;2.03;;;14.00;53.30;;;;;;5009974;28;20425;-42
2021/01/30 10:23:37;;;;;;;11.60;2.70;;;14.00;53.80;;;;;;5009805;28;20498;-42
2021/01/30 10:26:15;;;;;;;6.17;2.13;;;13.80;54.10;;;;;;5010285;28;20445;-42
2021/01/30 10:28:59;;;;;;;5.40;1.70;;;13.70;54.30;;;;;;5010764;28;20441;-42
2021/01/30 10:31:45;;;;;;;10.83;2.63;;;13.50;54.50;;;;;;5012979;28;21172;-42
2021/01/30 10:34:17;;;;;;;6.50;2.40;;;13.40;55.70;;;;;;5009273;28;20441;-42
2021/01/30 10:36:53;;;;;;;6.00;2.00;;;13.60;55.50;;;;;;5011151;28;20448;-42
2021/01/30 10:39:22;;;;;;;8.63;2.20;;;13.70;55.30;;;;;;5007981;28;20448;-42
2021/01/30 10:41:49;;;;;;;4.50;2.00;;;13.60;55.40;;;;;;5013941;28;20439;-42
2021/01/30 10:44:30;;;;;;;10.80;2.37;;;13.30;55.90;;;;;;5007540;28;20452;-43
2021/01/30 10:46:59;;;;;;;7.80;2.40;;;13.40;57.10;;;;;;5009821;28;20471;-44
2021/01/30 10:49:34;;;;;;;4.03;1.57;;;13.60;57.50;;;;;;4999937;28;20820;-43
2021/01/30 10:52:07;;;;;;;12.00;2.10;;;13.60;56.00;;;;;;5009982;28;20933;-43
2021/01/30 10:54:34;;;;;;;11.90;1.93;;;13.30;56.50;;;;;;5006303;28;20532;-44
2021/01/30 10:57:00;;;;;;;4.73;2.53;;;13.10;57.00;;;;;;5009344;28;20440;-44
2021/01/30 10:59:26;;;;;;;5.30;1.30;;;13.30;57.20;;;;;;5009008;28;21234;-43
2021/01/30 11:01:51;;;;;;;2.40;1.43;;;13.20;56.50;;;;;;5008687;28;20455;-43
2021/01/30 11:04:26;;;;;;;5.57;1.43;;;13.30;57.10;;;;;;5010748;28;20186;-44
2021/01/30 11:06:58;;;;;;;5.57;1.53;;;13.40;56.60;;;;;;5006032;28;20283;-43
2021/01/30 11:09:27;;;;;;;4.63;1.60;;;13.10;56.00;;;;;;5010424;28;20484;-44
2021/01/30 11:12:15;;;;;;;3.03;1.50;;;13.00;56.60;;;;;;5012060;28;20515;-43
2021/01/30 11:14:41;;;;;;;6.57;1.37;;;13.00;57.10;;;;;;5002862;28;20433;-44
2021/01/30 11:17:25;;;;;;;3.93;1.70;;;13.10;57.70;;;;;;5008805;28;20785;-43
2021/01/30 11:19:51;;;;;;;4.90;2.00;;;13.40;57.60;;;;;;5014457;28;20456;-44
2021/01/30 11:22:23;;;;;;;3.03;1.40;;;13.60;57.50;;;;;;5015186;28;20440;-43
2021/01/30 11:24:50;;;;;;;4.07;1.50;;;13.60;57.60;;;;;;5009641;28;20565;-44
2021/01/30 11:27:34;;;;;;;5.70;1.60;;;13.40;57.10;;;;;;5018783;28;20441;-44
2021/01/30 11:30:23;;;;;;;3.43;1.70;;;13.70;57.30;;;;;;5013406;28;20441;-44
2021/01/30 11:32:52;;;;;;;4.47;2.00;;;13.90;57.50;;;;;;5016598;28;20539;-44
2021/01/30 11:35:24;;;;;;;9.60;3.87;;;14.00;57.40;;;;;;5018330;28;20448;-45
2021/01/30 11:37:50;;;;;;;3.90;2.50;;;13.90;57.00;;;;;;5000507;28;20453;-45
2021/01/30 11:40:16;;;;;;;3.23;1.50;;;14.10;56.80;;;;;;5003934;28;20920;-44
2021/01/30 11:42:42;;;;;;;4.17;1.43;;;14.10;56.60;;;;;;5006352;28;20436;-44
2021/01/30 11:45:09;;;;;;;3.80;1.33;;;13.60;56.70;;;;;;5011492;28;20426;-44
2021/01/30 11:47:34;;;;;;;2.40;1.20;;;13.50;58.20;;;;;;5012551;28;20481;-44
2021/01/30 11:50:00;;;;;;;8.57;2.23;;;13.80;57.90;;;;;;5011458;28;20861;-44
2021/01/30 11:52:27;;;;;;;7.43;1.90;;;14.00;58.00;;;;;;5015578;28;20233;-44
2021/01/30 11:54:53;;;;;;;3.37;1.60;;;14.20;58.00;;;;;;5010902;28;20193;-45
2021/01/30 11:57:20;;;;;;;6.73;1.83;;;14.20;57.60;;;;;;4995788;28;20438;-44
2021/01/30 11:59:46;;;;;;;4.13;1.17;;;14.30;57.10;;;;;;5006647;28;20198;-44
2021/01/30 12:02:21;;;;;;;4.30;1.70;;;14.20;57.10;;;;;;5011746;28;20439;-44
2021/01/30 12:04:47;;;;;;;3.13;1.53;;;14.20;57.40;;;;;;5011380;28;20991;-44
2021/01/30 12:07:12;;;;;;;2.10;1.50;;;14.30;57.00;;;;;;5015034;28;20532;-45
2021/01/30 12:09:39;;;;;;;5.27;1.60;;;14.30;56.80;;;;;;5023053;28;20671;-43
2021/01/30 12:12:05;;;;;;;2.60;1.60;;;14.40;57.40;;;;;;5003560;28;20346;-42
2021/01/30 12:14:31;;;;;;;6.13;1.70;;;14.60;57.30;;;;;;5015324;28;20461;-42
2021/01/30 12:16:57;;;;;;;4.67;1.70;;;14.70;56.80;;;;;;5011167;28;20194;-44
2021/01/30 12:19:22;;;;;;;4.73;1.53;;;14.80;56.70;;;;;;5001284;28;20213;-41
2021/01/30 12:21:48;;;;;;;5.07;1.80;;;14.70;55.90;;;;;;4994892;28;20429;-42
2021/01/30 12:24:14;;;;;;;7.93;1.80;;;14.80;56.00;;;;;;5009247;28;20198;-44
2021/01/30 12:26:40;;;;;;;3.53;1.60;;;14.90;56.40;;;;;;5011559;28;20307;-44
2021/01/30 12:29:05;;;;;;;4.60;1.20;;;14.90;56.60;;;;;;5005704;28;20190;-44
2021/01/30 12:31:32;;;;;;;6.83;1.77;;;14.80;56.10;;;;;;5012235;28;20487;-41
2021/01/30 12:33:57;;;;;;;4.97;2.20;;;14.90;55.30;;;;;;5012345;28;20248;-46
2021/01/30 12:36:23;;;;;;;3.10;1.50;;;14.90;55.60;;;;;;5008767;28;20485;-42
2021/01/30 12:38:49;;;;;;;7.47;2.37;;;14.90;55.70;;;;;;5009327;28;20248;-45
2021/01/30 12:41:15;;;;;;;2.30;1.60;;;15.00;55.50;;;;;;5011505;28;20205;-43
2021/01/30 12:43:40;;;;;;;9.73;2.10;;;15.10;55.30;;;;;;5011317;28;20268;-43
2021/01/30 12:46:06;;;;;;;3.43;1.50;;;15.20;54.90;;;;;;5009724;28;20264;-45
2021/01/30 12:48:31;;;;;;;5.70;1.47;;;15.20;55.00;;;;;;5011583;28;20411;-43
2021/01/30 12:50:57;;;;;;;3.33;1.30;;;15.20;55.00;;;;;;5011286;28;20202;-45
2021/01/30 12:53:24;;;;;;;4.13;2.43;;;15.10;54.90;;;;;;5008010;28;20706;-47
2021/01/30 12:55:50;;;;;;;5.83;2.00;;;15.10;55.50;;;;;;5008026;28;20798;-45
2021/01/30 12:58:27;;;;;;;4.17;2.00;;;15.00;55.70;;;;;;5010832;28;20429;-44
2021/01/30 13:00:54;;;;;;;4.17;1.60;;;15.10;55.90;;;;;;5011143;28;20284;-43
2021/01/30 13:03:23;;;;;;;3.83;2.03;;;15.10;55.90;;;;;;5009470;28;20433;-42
2021/01/30 13:05:50;;;;;;;5.27;2.23;;;15.20;55.70;;;;;;5010107;28;20988;-43
2021/01/30 13:08:17;;;;;;;3.10;1.60;;;15.20;55.70;;;;;;5010705;28;20441;-43
2021/01/30 13:10:43;;;;;;;8.07;1.90;;;15.10;55.80;;;;;;5010284;28;20444;-42
2021/01/30 13:13:09;;;;;;;5.83;1.80;;;15.10;55.90;;;;;;5011197;28;20987;-43
2021/01/30 13:15:34;;;;;;;6.70;2.37;;;15.20;55.80;;;;;;5015464;28;20192;-42